Time;durP1;ratioP1;P1;durP2;ratioP2;P2;SDS_P1;SDS_P2;PMS_P1;PMS_P2;Temp;Humidity;BMP_temperature;BMP_pressure;BME280_temperature;BME280_humidity;BME280_pressure;Samples;Min_cycle;Max_cycle;Signal;HPM_P1;HPM_P2
2021/09/09 00:00:31;;;;;;;20.80;18.80;;;19.90;99.90;;;;;;5057903;28;20476;-64
2021/09/09 00:02:59;;;;;;;19.00;17.20;;;19.90;99.90;;;;;;5061920;28;20467;-63
2021/09/09 00:05:27;;;;;;;18.83;17.13;;;19.90;99.90;;;;;;5053581;28;20563;-63
2021/09/09 00:07:54;;;;;;;19.00;17.13;;;19.90;99.90;;;;;;5065249;28;20470;-63
2021/09/09 00:10:21;;;;;;;19.27;17.30;;;19.90;99.90;;;;;;5061591;28;20971;-63
2021/09/09 00:12:48;;;;;;;18.00;16.40;;;19.90;99.90;;;;;;5052971;28;20482;-63
2021/09/09 00:15:15;;;;;;;18.67;16.93;;;19.90;99.90;;;;;;5066546;28;20486;-63
2021/09/09 00:17:42;;;;;;;18.47;16.50;;;19.90;99.90;;;;;;5053446;28;20467;-63
2021/09/09 00:20:10;;;;;;;19.83;17.93;;;19.90;99.90;;;;;;5057683;28;20467;-63
2021/09/09 00:22:39;;;;;;;16.23;14.73;;;19.90;99.90;;;;;;5061063;28;20478;-63
2021/09/09 00:25:07;;;;;;;16.43;14.93;;;19.90;99.90;;;;;;5052737;28;21173;-63
2021/09/09 00:27:34;;;;;;;16.03;14.43;;;19.90;99.90;;;;;;5054125;28;20546;-63
2021/09/09 00:30:01;;;;;;;16.50;15.10;;;19.90;99.90;;;;;;5054022;28;20477;-64
2021/09/09 00:32:28;;;;;;;15.93;14.57;;;19.90;99.90;;;;;;5064348;28;20458;-63
2021/09/09 00:34:58;;;;;;;16.37;14.77;;;19.90;99.90;;;;;;5053897;28;20808;-63
2021/09/09 00:37:25;;;;;;;17.53;16.00;;;19.90;99.90;;;;;;5053047;28;20486;-63
2021/09/09 00:39:53;;;;;;;16.80;15.30;;;19.80;99.90;;;;;;5052582;28;20472;-63
2021/09/09 00:42:20;;;;;;;16.70;15.10;;;19.80;99.90;;;;;;5065377;28;20462;-63
2021/09/09 00:44:47;;;;;;;17.10;15.40;;;19.80;99.90;;;;;;5053477;28;20459;-63
2021/09/09 00:47:14;;;;;;;17.67;16.17;;;19.80;99.90;;;;;;5033292;28;20460;-63
2021/09/09 00:49:43;;;;;;;17.50;15.77;;;19.70;99.90;;;;;;5032721;28;20478;-63
2021/09/09 00:52:12;;;;;;;17.73;16.00;;;19.70;99.90;;;;;;5034663;28;20475;-63
2021/09/09 00:54:38;;;;;;;17.10;15.50;;;19.70;99.90;;;;;;5039239;28;20550;-63
2021/09/09 00:57:08;;;;;;;17.40;15.90;;;19.70;99.90;;;;;;5046220;28;20534;-63
2021/09/09 00:59:36;;;;;;;17.83;16.30;;;19.70;99.90;;;;;;5037195;28;20469;-63
2021/09/09 01:02:05;;;;;;;18.80;17.10;;;19.60;99.90;;;;;;5032559;28;20810;-63
2021/09/09 01:04:32;;;;;;;17.27;15.47;;;19.60;99.90;;;;;;5050577;28;20463;-63
2021/09/09 01:07:00;;;;;;;16.23;14.80;;;19.60;99.90;;;;;;5040144;28;20478;-63
2021/09/09 01:09:27;;;;;;;16.63;15.23;;;19.60;99.90;;;;;;5039447;28;20471;-64
2021/09/09 01:11:54;;;;;;;17.63;16.10;;;19.60;99.90;;;;;;5038313;28;20472;-63
2021/09/09 01:14:23;;;;;;;16.57;15.10;;;19.50;99.90;;;;;;5032710;28;20558;-63
2021/09/09 01:16:50;;;;;;;17.97;16.37;;;19.50;99.90;;;;;;5045874;28;20475;-63
2021/09/09 01:19:18;;;;;;;16.37;14.90;;;19.50;99.90;;;;;;5032189;28;21188;-63
2021/09/09 01:21:45;;;;;;;16.33;14.80;;;19.50;99.90;;;;;;5033191;28;20813;-63
2021/09/09 01:24:13;;;;;;;16.80;15.20;;;19.40;99.90;;;;;;5044458;28;20468;-64
2021/09/09 01:26:49;;;;;;;15.90;14.53;;;19.40;99.90;;;;;;5032359;28;20475;-64
2021/09/09 01:29:17;;;;;;;16.37;14.77;;;19.40;99.90;;;;;;5045926;28;20481;-64
2021/09/09 01:31:44;;;;;;;15.60;14.20;;;19.40;99.90;;;;;;5039788;28;21146;-64
2021/09/09 01:34:11;;;;;;;16.50;15.07;;;19.40;99.90;;;;;;5056181;28;20971;-64
2021/09/09 01:36:38;;;;;;;16.27;14.73;;;19.40;99.90;;;;;;5052071;28;20473;-64
2021/09/09 01:39:05;;;;;;;16.97;15.37;;;19.30;99.90;;;;;;5041782;28;20485;-64
2021/09/09 01:41:33;;;;;;;15.07;13.67;;;19.30;99.90;;;;;;5037387;28;20463;-63
2021/09/09 01:44:00;;;;;;;16.80;15.30;;;19.30;99.90;;;;;;5040267;28;20459;-64
2021/09/09 01:46:27;;;;;;;18.40;16.70;;;19.30;99.90;;;;;;5033015;28;20460;-64
2021/09/09 01:48:55;;;;;;;17.47;15.90;;;19.30;99.90;;;;;;5044926;28;20459;-64
2021/09/09 01:51:22;;;;;;;17.73;16.03;;;19.30;99.90;;;;;;5034952;28;21646;-63
2021/09/09 01:53:49;;;;;;;16.70;15.30;;;19.30;99.90;;;;;;5032071;28;20974;-64
2021/09/09 01:56:16;;;;;;;15.70;14.30;;;19.30;99.90;;;;;;5046042;28;20820;-64
2021/09/09 01:58:44;;;;;;;15.60;14.30;;;19.30;99.90;;;;;;5057477;28;20467;-64
2021/09/09 02:01:11;;;;;;;16.70;15.30;;;19.30;99.90;;;;;;5033243;28;20560;-64
2021/09/09 02:03:38;;;;;;;15.73;14.33;;;19.30;99.90;;;;;;5044252;28;20493;-63
2021/09/09 02:06:05;;;;;;;15.27;13.97;;;19.20;99.90;;;;;;5032439;28;20464;-63
2021/09/09 02:08:32;;;;;;;15.90;14.50;;;19.20;99.90;;;;;;5034921;28;20499;-63
2021/09/09 02:10:59;;;;;;;15.30;13.93;;;19.20;99.90;;;;;;5046545;28;20472;-63
2021/09/09 02:13:26;;;;;;;14.63;13.27;;;19.20;99.90;;;;;;5035888;28;20456;-63
2021/09/09 02:15:54;;;;;;;14.57;13.17;;;19.20;99.90;;;;;;5041653;28;20477;-63
2021/09/09 02:18:21;;;;;;;13.23;12.13;;;19.20;99.90;;;;;;5042095;28;20464;-63
2021/09/09 02:20:48;;;;;;;14.63;13.33;;;19.20;99.90;;;;;;5035764;28;20479;-63
2021/09/09 02:23:15;;;;;;;14.93;13.53;;;19.20;99.90;;;;;;5048190;28;20471;-63
2021/09/09 02:25:42;;;;;;;16.37;14.70;;;19.20;99.90;;;;;;5035521;28;20460;-63
2021/09/09 02:28:09;;;;;;;16.20;14.77;;;19.20;99.90;;;;;;5039878;28;20469;-63
2021/09/09 02:30:36;;;;;;;14.23;12.80;;;19.20;99.90;;;;;;5050393;28;20792;-63
2021/09/09 02:33:04;;;;;;;15.47;13.90;;;19.10;99.90;;;;;;5035072;28;20476;-63
2021/09/09 02:35:31;;;;;;;13.63;12.27;;;19.10;99.90;;;;;;5048527;28;20459;-63
2021/09/09 02:37:58;;;;;;;16.20;14.70;;;19.10;99.90;;;;;;5035527;28;20468;-64
2021/09/09 02:40:25;;;;;;;15.13;13.77;;;19.10;99.90;;;;;;5048199;28;20474;-64
2021/09/09 02:42:52;;;;;;;14.30;13.00;;;19.10;99.90;;;;;;5035414;28;20965;-63
2021/09/09 02:45:19;;;;;;;15.60;14.10;;;19.10;99.90;;;;;;5048213;28;20884;-63
2021/09/09 02:47:46;;;;;;;14.97;13.57;;;19.10;99.90;;;;;;5045467;28;20821;-64
2021/09/09 02:50:14;;;;;;;15.07;13.53;;;19.10;99.90;;;;;;5037494;28;20463;-64
2021/09/09 02:52:41;;;;;;;16.83;15.37;;;19.10;99.90;;;;;;5045022;28;20463;-63
2021/09/09 02:55:09;;;;;;;14.97;13.50;;;19.00;99.90;;;;;;5040514;28;20472;-64
2021/09/09 02:57:36;;;;;;;16.03;14.43;;;19.00;99.90;;;;;;5044957;28;20474;-64
2021/09/09 03:00:03;;;;;;;16.23;14.73;;;19.00;99.90;;;;;;5047991;28;20482;-64
2021/09/09 03:02:30;;;;;;;15.00;13.63;;;19.00;99.90;;;;;;5035019;28;20954;-63
2021/09/09 03:04:57;;;;;;;15.00;13.47;;;19.00;99.90;;;;;;5038394;28;20546;-64
2021/09/09 03:07:25;;;;;;;13.90;12.70;;;19.00;99.90;;;;;;5048765;28;20937;-64
2021/09/09 03:09:52;;;;;;;15.10;13.80;;;18.90;99.90;;;;;;5040751;28;20468;-64
2021/09/09 03:12:19;;;;;;;15.60;14.10;;;18.90;99.90;;;;;;5045410;28;20467;-64
2021/09/09 03:14:45;;;;;;;15.90;14.37;;;18.90;99.90;;;;;;5036987;28;20472;-64
2021/09/09 03:17:12;;;;;;;14.20;12.90;;;18.90;99.90;;;;;;5034615;28;20809;-64
2021/09/09 03:19:39;;;;;;;16.47;14.90;;;18.90;99.90;;;;;;5047601;28;20468;-63
2021/09/09 03:22:06;;;;;;;13.67;12.43;;;18.90;99.90;;;;;;5034162;28;20495;-64
2021/09/09 03:24:35;;;;;;;15.70;14.30;;;18.90;99.90;;;;;;5034730;28;20810;-64
2021/09/09 03:27:02;;;;;;;13.97;12.60;;;18.80;99.90;;;;;;5045287;28;20557;-64
2021/09/09 03:29:28;;;;;;;14.10;12.80;;;18.80;99.90;;;;;;5038274;28;20547;-64
2021/09/09 03:31:55;;;;;;;14.23;13.03;;;18.80;99.90;;;;;;5047584;28;20488;-64
2021/09/09 03:34:22;;;;;;;14.50;13.17;;;18.80;99.90;;;;;;5051723;28;20489;-64
2021/09/09 03:36:49;;;;;;;15.80;14.30;;;18.80;99.90;;;;;;5053931;28;20478;-63
2021/09/09 03:39:16;;;;;;;16.87;15.37;;;18.80;99.90;;;;;;5045607;28;20786;-63
2021/09/09 03:41:44;;;;;;;16.57;15.07;;;18.80;99.90;;;;;;5042420;28;20467;-63
2021/09/09 03:44:11;;;;;;;17.57;15.97;;;18.80;99.90;;;;;;5055029;28;20813;-64
2021/09/09 03:46:38;;;;;;;16.20;14.70;;;18.70;99.90;;;;;;5040386;28;20965;-64
2021/09/09 03:49:05;;;;;;;14.37;12.97;;;18.70;99.90;;;;;;5046566;28;20476;-64
2021/09/09 03:51:31;;;;;;;16.13;14.70;;;18.70;99.90;;;;;;5034227;28;20462;-64
2021/09/09 03:53:58;;;;;;;15.73;14.23;;;18.70;99.90;;;;;;5046714;28;20765;-63
2021/09/09 03:56:25;;;;;;;15.30;13.83;;;18.70;99.90;;;;;;5045670;28;20482;-63
2021/09/09 03:58:53;;;;;;;14.00;12.53;;;18.70;99.90;;;;;;5041474;28;20809;-63
2021/09/09 04:01:20;;;;;;;14.33;12.93;;;18.70;99.90;;;;;;5038981;28;20464;-64
2021/09/09 04:03:47;;;;;;;15.23;13.73;;;18.70;99.90;;;;;;5033670;28;20474;-63
2021/09/09 04:06:14;;;;;;;14.90;13.50;;;18.70;99.90;;;;;;5032557;28;20468;-64
2021/09/09 04:08:41;;;;;;;26.73;23.67;;;18.60;99.90;;;;;;5048843;28;20473;-63
2021/09/09 04:11:08;;;;;;;21.40;19.30;;;18.60;99.90;;;;;;5053701;28;20482;-64
2021/09/09 04:13:35;;;;;;;18.17;16.30;;;18.60;99.90;;;;;;5065159;28;20457;-64
2021/09/09 04:16:03;;;;;;;15.57;14.07;;;18.60;99.90;;;;;;5073784;28;20463;-63
2021/09/09 04:18:30;;;;;;;13.70;12.50;;;18.60;99.90;;;;;;5072960;28;20500;-63
2021/09/09 04:20:57;;;;;;;14.23;12.83;;;18.60;99.90;;;;;;5073702;28;20490;-64
2021/09/09 04:23:24;;;;;;;14.53;13.13;;;18.60;99.90;;;;;;5073169;28;20545;-64
2021/09/09 04:25:50;;;;;;;15.90;14.13;;;18.60;99.90;;;;;;5073342;28;20537;-64
2021/09/09 04:28:17;;;;;;;15.10;13.70;;;18.60;99.90;;;;;;5061803;28;20833;-63
2021/09/09 04:30:44;;;;;;;16.30;14.83;;;18.60;99.90;;;;;;5053016;28;20470;-63
2021/09/09 04:33:12;;;;;;;15.10;13.50;;;18.50;99.90;;;;;;5053200;28;20478;-63
2021/09/09 04:35:39;;;;;;;17.37;15.43;;;18.60;99.90;;;;;;5038192;28;20478;-64
2021/09/09 04:38:06;;;;;;;15.57;14.17;;;18.50;99.90;;;;;;5053301;28;20482;-63
2021/09/09 04:40:34;;;;;;;15.80;14.17;;;18.50;99.90;;;;;;5052965;28;20467;-63
2021/09/09 04:43:01;;;;;;;15.90;14.40;;;18.50;99.90;;;;;;5053279;28;20479;-63
2021/09/09 04:45:28;;;;;;;16.57;14.93;;;18.50;99.90;;;;;;5052729;28;20471;-63
2021/09/09 04:47:54;;;;;;;15.30;13.83;;;18.50;99.90;;;;;;5053111;28;20469;-63
2021/09/09 04:50:23;;;;;;;16.33;14.77;;;18.50;99.90;;;;;;5051839;28;20467;-64
2021/09/09 04:52:49;;;;;;;14.67;13.40;;;18.50;99.90;;;;;;5033202;28;20805;-64
2021/09/09 04:55:16;;;;;;;14.03;12.83;;;18.50;99.90;;;;;;5032987;28;20468;-64
2021/09/09 04:57:43;;;;;;;15.40;14.00;;;18.50;99.90;;;;;;5032924;28;20456;-64
2021/09/09 05:00:11;;;;;;;14.33;13.03;;;18.50;99.90;;;;;;5032950;28;20476;-64
2021/09/09 05:02:38;;;;;;;15.10;13.80;;;18.50;99.90;;;;;;5032659;28;20459;-64
2021/09/09 05:05:05;;;;;;;14.57;13.27;;;18.50;99.90;;;;;;5033081;28;20479;-64
2021/09/09 05:07:35;;;;;;;16.53;14.83;;;18.50;99.90;;;;;;5038366;28;20466;-64
2021/09/09 05:10:02;;;;;;;17.43;15.83;;;18.50;99.90;;;;;;5052951;28;20539;-64
2021/09/09 05:12:29;;;;;;;19.57;17.47;;;18.50;99.90;;;;;;5052438;28;20467;-64
2021/09/09 05:14:56;;;;;;;17.03;15.47;;;18.50;99.90;;;;;;5052803;28;20482;-64
2021/09/09 05:17:23;;;;;;;16.27;14.80;;;18.50;99.90;;;;;;5052386;28;20542;-63
2021/09/09 05:19:49;;;;;;;16.93;15.40;;;18.50;99.90;;;;;;5052637;28;20469;-64
2021/09/09 05:22:16;;;;;;;15.17;13.77;;;18.50;99.90;;;;;;5052667;28;20470;-64
2021/09/09 05:24:44;;;;;;;14.57;13.27;;;18.50;99.90;;;;;;5052588;28;20455;-64
2021/09/09 05:27:11;;;;;;;16.37;14.93;;;18.50;99.90;;;;;;5050845;28;20987;-64
2021/09/09 05:29:38;;;;;;;14.57;13.20;;;18.50;99.90;;;;;;5032210;28;20867;-64
2021/09/09 05:32:06;;;;;;;13.87;12.57;;;18.50;99.90;;;;;;5032468;28;20472;-64
2021/09/09 05:34:33;;;;;;;13.67;12.47;;;18.50;99.90;;;;;;5032210;28;20471;-64
2021/09/09 05:37:00;;;;;;;15.83;14.33;;;18.50;99.90;;;;;;5048961;28;20478;-64
2021/09/09 05:39:27;;;;;;;14.30;13.10;;;18.50;99.90;;;;;;5052135;28;20481;-64
2021/09/09 05:41:55;;;;;;;18.57;14.03;;;18.50;99.90;;;;;;5052337;28;20471;-64
2021/09/09 05:44:22;;;;;;;18.30;14.03;;;18.50;99.90;;;;;;5054747;28;20471;-64
2021/09/09 05:46:48;;;;;;;15.93;13.77;;;18.60;99.90;;;;;;5056500;28;20972;-64
2021/09/09 05:49:15;;;;;;;15.40;13.37;;;18.60;99.90;;;;;;5056432;28;20473;-64
2021/09/09 05:51:42;;;;;;;18.90;14.43;;;18.60;99.90;;;;;;5044192;28;20482;-64
2021/09/09 05:54:09;;;;;;;18.80;13.00;;;18.60;99.90;;;;;;5036425;28;20474;-64
2021/09/09 05:56:36;;;;;;;15.03;13.50;;;18.70;99.90;;;;;;5035567;28;20763;-64
2021/09/09 05:59:04;;;;;;;16.10;13.77;;;18.70;99.90;;;;;;5036338;28;20817;-64
2021/09/09 06:01:32;;;;;;;15.60;13.77;;;18.70;99.90;;;;;;5035918;28;20464;-64
2021/09/09 06:03:59;;;;;;;19.80;13.70;;;18.80;99.90;;;;;;5036377;28;20468;-64
2021/09/09 06:06:26;;;;;;;13.40;12.07;;;18.80;99.90;;;;;;5035735;28;20479;-64
2021/09/09 06:08:53;;;;;;;17.93;14.13;;;18.80;99.70;;;;;;5053146;28;20860;-64
2021/09/09 06:11:20;;;;;;;16.70;12.63;;;18.90;99.30;;;;;;5056289;28;20467;-64
2021/09/09 06:13:47;;;;;;;12.87;11.53;;;18.90;99.40;;;;;;5055759;28;20482;-64
2021/09/09 06:16:15;;;;;;;14.13;11.73;;;18.90;99.40;;;;;;5056053;28;20467;-64
2021/09/09 06:18:42;;;;;;;17.23;13.10;;;19.00;99.40;;;;;;5055560;28;20471;-64
2021/09/09 06:21:09;;;;;;;13.97;12.57;;;18.90;99.10;;;;;;5055921;28;20467;-65
2021/09/09 06:23:36;;;;;;;24.33;18.97;;;19.00;99.10;;;;;;5055398;28;20467;-64
2021/09/09 06:26:03;;;;;;;17.90;16.10;;;19.00;99.00;;;;;;5055884;28;20463;-63
2021/09/09 06:28:30;;;;;;;19.30;17.50;;;19.00;98.70;;;;;;5042598;28;20554;-64
2021/09/09 06:30:57;;;;;;;26.70;21.63;;;19.10;98.70;;;;;;5035874;28;20474;-64
2021/09/09 06:33:25;;;;;;;18.80;16.50;;;19.20;98.90;;;;;;5035214;28;20472;-65
2021/09/09 06:35:52;;;;;;;17.00;15.07;;;19.10;98.30;;;;;;5042508;28;20463;-64
2021/09/09 06:38:19;;;;;;;14.57;12.50;;;19.20;98.30;;;;;;5055400;28;20471;-64
2021/09/09 06:40:45;;;;;;;13.00;11.90;;;19.20;98.20;;;;;;5055657;28;20459;-64
2021/09/09 06:43:12;;;;;;;12.50;11.30;;;19.20;98.20;;;;;;5055623;28;20466;-64
2021/09/09 06:45:39;;;;;;;17.33;13.37;;;19.30;98.20;;;;;;5055267;28;20827;-64
2021/09/09 06:48:07;;;;;;;13.93;12.50;;;19.40;98.30;;;;;;5055354;28;20465;-64
2021/09/09 06:50:35;;;;;;;13.30;11.47;;;19.40;98.30;;;;;;5052769;28;20467;-64
2021/09/09 06:53:02;;;;;;;13.13;11.83;;;19.40;98.60;;;;;;5035627;28;20464;-64
2021/09/09 06:55:29;;;;;;;14.57;13.17;;;19.50;98.40;;;;;;5034103;28;20471;-64
2021/09/09 06:57:57;;;;;;;12.97;11.50;;;19.50;98.40;;;;;;5035530;28;20464;-64
2021/09/09 07:00:24;;;;;;;17.77;11.70;;;19.60;97.60;;;;;;5035448;28;20479;-64
2021/09/09 07:02:50;;;;;;;13.70;12.33;;;19.60;97.40;;;;;;5035039;28;20949;-64
2021/09/09 07:05:18;;;;;;;12.67;11.47;;;19.60;97.40;;;;;;5035227;28;20483;-64
2021/09/09 07:07:46;;;;;;;16.40;9.77;;;19.70;97.40;;;;;;5042262;28;20463;-63
2021/09/09 07:10:13;;;;;;;11.83;10.63;;;19.70;97.20;;;;;;5054957;28;20474;-63
2021/09/09 07:12:39;;;;;;;10.43;9.30;;;19.80;97.20;;;;;;5054599;28;20472;-63
2021/09/09 07:15:07;;;;;;;11.80;10.67;;;19.80;97.10;;;;;;5054824;28;21010;-63
2021/09/09 07:17:34;;;;;;;13.00;11.70;;;19.90;97.30;;;;;;5054548;28;20513;-63
2021/09/09 07:20:00;;;;;;;13.20;10.30;;;19.90;96.90;;;;;;5054745;28;20463;-63
2021/09/09 07:22:27;;;;;;;13.37;11.90;;;20.00;97.20;;;;;;5054575;28;20477;-63
2021/09/09 07:24:55;;;;;;;11.03;9.93;;;20.00;97.20;;;;;;5054826;28;20920;-63
2021/09/09 07:27:22;;;;;;;13.93;11.00;;;20.10;96.80;;;;;;5051002;28;20464;-64
2021/09/09 07:29:49;;;;;;;10.80;9.80;;;20.10;96.70;;;;;;5038667;28;20842;-64
2021/09/09 07:32:16;;;;;;;10.63;9.63;;;20.10;96.50;;;;;;5054348;28;20474;-64
2021/09/09 07:34:43;;;;;;;10.80;9.37;;;20.20;96.30;;;;;;5054249;28;20486;-64
2021/09/09 07:37:10;;;;;;;11.33;10.23;;;20.30;96.60;;;;;;5054397;28;20805;-64
2021/09/09 07:39:36;;;;;;;11.13;10.03;;;20.30;96.40;;;;;;5053990;28;20981;-64
2021/09/09 07:42:05;;;;;;;13.40;10.73;;;20.40;96.20;;;;;;5054264;28;20459;-64
2021/09/09 07:44:31;;;;;;;11.83;10.30;;;20.40;96.10;;;;;;5054033;28;20977;-64
2021/09/09 07:46:58;;;;;;;10.73;9.40;;;20.50;96.10;;;;;;5054555;28;20800;-64
2021/09/09 07:49:25;;;;;;;10.63;9.73;;;20.50;95.70;;;;;;5054255;28;20554;-64
2021/09/09 07:51:53;;;;;;;15.33;9.50;;;20.60;95.60;;;;;;5049408;28;20452;-64
2021/09/09 07:54:20;;;;;;;10.10;8.97;;;20.60;95.20;;;;;;5054054;28;20968;-64
2021/09/09 07:56:47;;;;;;;10.43;9.50;;;20.70;95.20;;;;;;5061995;28;20524;-64
2021/09/09 07:59:16;;;;;;;11.23;9.43;;;20.70;95.00;;;;;;5053922;28;20501;-64
2021/09/09 08:01:44;;;;;;;10.47;8.97;;;20.80;94.80;;;;;;5053443;28;20469;-65
2021/09/09 08:04:15;;;;;;;11.43;10.23;;;20.90;94.80;;;;;;5053962;28;20977;-64
2021/09/09 08:06:43;;;;;;;11.10;9.53;;;21.00;95.20;;;;;;5052396;28;20513;-65
2021/09/09 08:09:11;;;;;;;11.27;9.90;;;21.00;94.80;;;;;;5053738;28;20463;-64
2021/09/09 08:11:38;;;;;;;11.60;9.53;;;21.10;94.80;;;;;;5053512;28;20981;-64
2021/09/09 08:14:05;;;;;;;11.20;10.00;;;21.10;94.30;;;;;;5053691;28;20811;-64
2021/09/09 08:16:34;;;;;;;9.80;8.87;;;21.20;94.20;;;;;;5053501;28;20463;-63
2021/09/09 08:19:01;;;;;;;9.07;8.17;;;21.30;94.20;;;;;;5053695;28;20463;-63
2021/09/09 08:21:27;;;;;;;11.90;8.80;;;21.40;94.00;;;;;;5053510;28;20473;-64
2021/09/09 08:23:54;;;;;;;10.90;9.80;;;21.40;93.80;;;;;;5053046;28;20459;-64
2021/09/09 08:26:21;;;;;;;10.97;9.97;;;21.50;93.90;;;;;;5053577;28;20473;-63
2021/09/09 08:28:48;;;;;;;8.87;8.07;;;21.60;94.00;;;;;;5037738;28;20494;-63
2021/09/09 08:31:19;;;;;;;9.13;7.53;;;21.60;93.20;;;;;;5033277;28;20951;-64
2021/09/09 08:33:48;;;;;;;9.27;8.40;;;21.60;93.50;;;;;;5033192;28;20765;-64
2021/09/09 08:36:16;;;;;;;9.87;8.87;;;21.70;93.90;;;;;;5043441;28;20999;-64
2021/09/09 08:38:43;;;;;;;9.40;8.43;;;21.80;93.60;;;;;;5052830;28;20533;-64
2021/09/09 08:41:09;;;;;;;9.10;8.10;;;21.80;94.20;;;;;;5053521;28;20475;-64
2021/09/09 08:43:36;;;;;;;10.40;8.50;;;21.80;93.40;;;;;;5052777;28;20836;-65
2021/09/09 08:46:04;;;;;;;11.47;8.83;;;21.80;92.80;;;;;;5053236;28;20463;-65
2021/09/09 08:48:32;;;;;;;10.23;8.63;;;21.90;93.20;;;;;;5053319;28;20494;-65
2021/09/09 08:51:00;;;;;;;9.33;8.23;;;21.90;93.20;;;;;;5046903;28;20470;-63
2021/09/09 08:53:28;;;;;;;11.43;8.30;;;22.00;93.10;;;;;;5033074;28;20996;-63
2021/09/09 08:55:54;;;;;;;9.40;7.37;;;22.00;92.40;;;;;;5032635;28;20456;-63
2021/09/09 08:58:21;;;;;;;9.53;8.50;;;22.10;92.30;;;;;;5032964;28;20473;-63
2021/09/09 09:01:08;;;;;;;11.30;7.70;;;22.10;92.10;;;;;;5032655;28;20460;-64
2021/09/09 09:03:52;;;;;;;8.80;7.30;;;22.10;91.80;;;;;;5033139;28;20522;-64
2021/09/09 09:06:38;;;;;;;8.03;7.30;;;22.20;92.10;;;;;;5033208;28;20467;-65
2021/09/09 09:09:09;;;;;;;9.47;7.63;;;22.30;91.80;;;;;;5051351;28;20477;-65
2021/09/09 09:11:39;;;;;;;8.73;7.90;;;22.30;91.80;;;;;;5052547;28;20459;-65
2021/09/09 09:14:11;;;;;;;8.83;7.93;;;22.40;92.10;;;;;;5052714;28;20481;-63
2021/09/09 09:16:44;;;;;;;10.67;9.73;;;22.40;92.10;;;;;;5052091;28;20463;-64
2021/09/09 09:19:11;;;;;;;15.80;11.33;;;22.50;92.80;;;;;;5052587;28;20463;-64
2021/09/09 09:21:43;;;;;;;11.23;10.23;;;22.60;93.30;;;;;;5052090;28;20467;-64
2021/09/09 09:24:12;;;;;;;11.70;10.60;;;22.60;93.60;;;;;;5052782;28;20475;-65
2021/09/09 09:26:39;;;;;;;9.87;8.93;;;22.60;94.00;;;;;;5052121;28;20477;-64
2021/09/09 09:29:06;;;;;;;9.03;8.03;;;22.70;93.00;;;;;;5035002;28;20997;-65
2021/09/09 09:31:35;;;;;;;9.03;7.50;;;22.70;92.30;;;;;;5032090;28;20978;-64
2021/09/09 09:34:03;;;;;;;10.10;7.10;;;22.70;91.80;;;;;;5032664;28;20460;-64
2021/09/09 09:36:32;;;;;;;9.10;7.00;;;22.80;91.90;;;;;;5044295;28;20471;-64
2021/09/09 09:39:09;;;;;;;9.80;7.73;;;22.80;90.90;;;;;;5051375;28;20466;-64
2021/09/09 09:41:37;;;;;;;8.07;7.27;;;22.80;91.30;;;;;;5031542;28;20899;-63
2021/09/09 09:44:08;;;;;;;9.57;7.47;;;22.90;90.70;;;;;;5034846;28;20472;-65
2021/09/09 09:46:36;;;;;;;15.23;8.30;;;22.90;90.70;;;;;;5032273;28;20834;-64
2021/09/09 09:49:17;;;;;;;9.87;8.40;;;23.00;90.70;;;;;;5032201;28;20495;-64
2021/09/09 09:51:46;;;;;;;32.57;9.83;;;23.00;91.30;;;;;;5031532;28;20531;-65
2021/09/09 09:54:16;;;;;;;14.27;8.40;;;23.10;90.70;;;;;;5031735;28;20463;-64
2021/09/09 09:56:45;;;;;;;11.97;8.70;;;23.10;90.70;;;;;;5031012;28;20468;-65
2021/09/09 09:59:12;;;;;;;12.93;8.40;;;23.20;91.20;;;;;;5031982;28;20468;-64
2021/09/09 10:01:39;;;;;;;13.23;7.90;;;23.30;91.10;;;;;;5032166;28;20468;-64
2021/09/09 10:04:07;;;;;;;14.03;7.70;;;23.30;90.10;;;;;;5032647;28;20511;-65
2021/09/09 10:06:35;;;;;;;7.93;7.10;;;23.30;89.50;;;;;;5031974;28;20468;-64
2021/09/09 10:09:04;;;;;;;8.87;7.97;;;23.30;89.50;;;;;;5032320;28;20472;-64
2021/09/09 10:11:33;;;;;;;8.97;8.07;;;23.40;89.70;;;;;;5032005;28;20468;-64
2021/09/09 10:14:02;;;;;;;9.43;7.27;;;23.50;89.80;;;;;;5032485;28;20970;-65
2021/09/09 10:16:31;;;;;;;8.10;7.40;;;23.50;89.60;;;;;;5031914;28;20483;-64
2021/09/09 10:18:58;;;;;;;6.70;6.10;;;23.60;89.00;;;;;;5032298;28;20498;-64
2021/09/09 10:21:43;;;;;;;10.67;8.00;;;23.60;89.60;;;;;;5031617;28;20474;-65
2021/09/09 10:24:18;;;;;;;8.33;7.40;;;23.70;90.30;;;;;;5032342;28;20472;-64
2021/09/09 10:26:46;;;;;;;7.70;7.00;;;23.70;88.60;;;;;;5031831;28;20589;-65
2021/09/09 10:29:47;;;;;;;8.23;7.43;;;23.80;88.30;;;;;;5032539;28;20474;-64
2021/09/09 10:32:49;;;;;;;7.63;6.77;;;23.80;87.70;;;;;;5035756;28;20970;-65
2021/09/09 10:35:31;;;;;;;7.20;6.50;;;23.90;87.50;;;;;;5035093;28;20463;-65
2021/09/09 10:38:00;;;;;;;8.37;7.57;;;24.00;88.40;;;;;;5035873;28;20467;-65
2021/09/09 10:40:35;;;;;;;6.80;6.20;;;24.00;87.30;;;;;;5035437;28;20468;-64
2021/09/09 10:43:06;;;;;;;8.60;7.73;;;24.00;86.90;;;;;;5035656;28;20463;-64
2021/09/09 10:45:39;;;;;;;9.37;8.53;;;24.00;86.80;;;;;;5035522;28;20448;-64
2021/09/09 10:48:08;;;;;;;8.20;7.40;;;24.10;86.30;;;;;;5035485;28;21038;-64
2021/09/09 10:50:35;;;;;;;8.47;7.77;;;24.20;86.70;;;;;;5034974;28;20474;-64
2021/09/09 10:53:04;;;;;;;8.83;7.93;;;24.20;86.20;;;;;;5035479;28;20555;-65
2021/09/09 10:55:33;;;;;;;8.90;7.60;;;24.30;87.40;;;;;;5035109;28;20456;-65
2021/09/09 10:58:29;;;;;;;8.17;7.23;;;24.30;86.50;;;;;;5035314;28;20468;-64
2021/09/09 11:00:58;;;;;;;7.83;7.13;;;24.40;87.00;;;;;;5035278;28;21020;-63
2021/09/09 11:03:39;;;;;;;7.70;7.10;;;24.40;87.50;;;;;;5035256;28;20471;-63
2021/09/09 11:06:07;;;;;;;9.47;7.00;;;24.40;87.10;;;;;;5034564;28;20468;-64
2021/09/09 11:08:34;;;;;;;7.10;6.40;;;24.40;85.80;;;;;;5035164;28;20483;-63
2021/09/09 11:11:04;;;;;;;8.07;7.43;;;24.40;85.60;;;;;;5034757;28;20566;-63
2021/09/09 11:13:33;;;;;;;8.40;7.80;;;24.50;86.60;;;;;;5035119;28;20552;-64
2021/09/09 11:16:01;;;;;;;7.90;7.20;;;24.50;87.10;;;;;;5034716;28;20502;-63
2021/09/09 11:18:29;;;;;;;7.50;6.90;;;24.50;86.30;;;;;;5034911;28;20464;-64
2021/09/09 11:21:03;;;;;;;7.73;6.93;;;24.50;85.90;;;;;;5034400;28;20478;-63
2021/09/09 11:23:30;;;;;;;8.13;6.90;;;24.60;85.70;;;;;;5034896;28;20499;-64
2021/09/09 11:25:57;;;;;;;9.50;8.60;;;24.60;85.20;;;;;;5034633;28;20817;-64
2021/09/09 11:28:24;;;;;;;9.40;8.50;;;24.60;85.00;;;;;;5034640;28;20476;-63
2021/09/09 11:31:10;;;;;;;10.57;9.20;;;24.70;85.50;;;;;;5034690;28;20460;-64
2021/09/09 11:33:51;;;;;;;10.53;8.90;;;24.70;85.90;;;;;;5034753;28;20455;-65
2021/09/09 11:36:19;;;;;;;9.90;7.23;;;24.80;86.70;;;;;;5034578;28;20471;-64
2021/09/09 11:38:46;;;;;;;7.90;7.03;;;24.80;85.70;;;;;;5034126;28;20566;-65
2021/09/09 11:41:17;;;;;;;11.40;7.27;;;24.90;84.90;;;;;;5034474;28;20866;-65
2021/09/09 11:43:49;;;;;;;7.67;7.07;;;24.90;84.90;;;;;;5034312;28;20807;-65
2021/09/09 11:46:28;;;;;;;8.57;7.87;;;24.90;84.40;;;;;;5034440;28;20476;-65
2021/09/09 11:48:55;;;;;;;8.70;8.00;;;25.00;85.70;;;;;;5034068;28;20555;-65
2021/09/09 11:51:38;;;;;;;8.67;7.87;;;25.00;85.70;;;;;;5034278;28;20471;-63
2021/09/09 11:54:07;;;;;;;9.70;8.70;;;25.10;87.40;;;;;;5045700;28;21223;-64
2021/09/09 11:56:34;;;;;;;9.77;8.80;;;25.10;87.00;;;;;;5054064;28;20471;-64
2021/09/09 11:59:04;;;;;;;9.90;8.90;;;25.00;87.20;;;;;;5053474;28;20471;-65
2021/09/09 12:01:36;;;;;;;9.13;8.33;;;25.00;87.80;;;;;;5054142;28;20493;-65
2021/09/09 12:04:03;;;;;;;8.60;7.90;;;25.00;88.00;;;;;;5053559;28;20459;-63
2021/09/09 12:06:31;;;;;;;10.27;9.37;;;24.90;86.30;;;;;;5054005;28;20486;-64
2021/09/09 12:08:59;;;;;;;10.87;9.83;;;24.90;87.30;;;;;;5053386;28;20846;-63
2021/09/09 12:11:26;;;;;;;10.10;9.20;;;24.90;87.50;;;;;;5053857;28;20489;-64
2021/09/09 12:13:53;;;;;;;10.50;9.40;;;24.90;86.30;;;;;;5053396;28;20479;-64
2021/09/09 12:16:22;;;;;;;11.80;10.80;;;25.00;86.80;;;;;;5053585;28;20467;-63
2021/09/09 12:19:01;;;;;;;9.03;8.13;;;24.90;87.40;;;;;;5053373;28;20478;-63
2021/09/09 12:21:28;;;;;;;10.07;9.27;;;24.90;86.20;;;;;;5053738;28;20508;-64
2021/09/09 12:24:00;;;;;;;10.57;9.57;;;24.90;86.80;;;;;;5053064;28;20485;-63
2021/09/09 12:26:28;;;;;;;10.37;9.30;;;24.90;87.40;;;;;;5053606;28;20563;-64
2021/09/09 12:28:57;;;;;;;14.80;12.87;;;25.00;87.60;;;;;;5053003;28;20474;-63
2021/09/09 12:31:32;;;;;;;16.47;14.80;;;25.00;88.00;;;;;;5053231;28;20467;-64
2021/09/09 12:34:07;;;;;;;14.70;13.30;;;25.00;87.80;;;;;;5052876;28;20466;-64
2021/09/09 12:36:40;;;;;;;11.67;10.60;;;25.00;88.30;;;;;;5053471;28;20494;-64
2021/09/09 12:39:07;;;;;;;13.40;9.07;;;24.90;88.50;;;;;;5053024;28;20961;-64